Time;durP1;ratioP1;P1;durP2;ratioP2;P2;SDS_P1;SDS_P2;PMS_P1;PMS_P2;Temp;Humidity;BMP_temperature;BMP_pressure;BME280_temperature;BME280_humidity;BME280_pressure;Samples;Min_cycle;Max_cycle;Signal;HPM_P1;HPM_P2
2022/08/04 00:01:03;;;;;;;24.40;12.30;;;;;;;;;;4799926;29;20104;-83
2022/08/04 00:03:33;;;;;;;18.95;10.68;;;;;;;;;;4782523;29;20091;-84
2022/08/04 00:06:11;;;;;;;23.80;11.38;;;;;;;;;;4802855;29;20042;-82
2022/08/04 00:08:46;;;;;;;25.05;10.50;;;;;;;;;;4780057;29;20696;-83
2022/08/04 00:11:14;;;;;;;25.50;10.45;;;;;;;;;;4799019;29;20055;-83
2022/08/04 00:13:42;;;;;;;26.40;11.18;;;;;;;;;;4797324;29;20039;-84
2022/08/04 00:16:09;;;;;;;22.50;11.10;;;;;;;;;;4790919;29;20061;-82
2022/08/04 00:18:45;;;;;;;26.83;11.70;;;;;;;;;;4798191;29;20133;-83
2022/08/04 00:21:18;;;;;;;25.70;11.70;;;;;;;;;;4798856;29;20054;-85
2022/08/04 00:23:44;;;;;;;26.60;13.35;;;;;;;;;;4799735;29;20088;-81
2022/08/04 00:26:11;;;;;;;26.77;13.07;;;;;;;;;;4803771;29;20861;-83
2022/08/04 00:28:37;;;;;;;27.58;15.32;;;;;;;;;;4805640;29;20050;-83
2022/08/04 00:31:04;;;;;;;26.58;13.95;;;;;;;;;;4803842;29;20377;-83
2022/08/04 00:33:31;;;;;;;26.73;15.07;;;;;;;;;;4801670;29;20107;-83
2022/08/04 00:35:58;;;;;;;36.50;16.73;;;;;;;;;;4801952;29;20039;-84
2022/08/04 00:38:25;;;;;;;38.22;17.27;;;;;;;;;;4786398;29;20095;-83
2022/08/04 00:40:51;;;;;;;34.40;16.10;;;;;;;;;;4801323;29;20106;-84
2022/08/04 00:43:29;;;;;;;32.00;15.73;;;;;;;;;;4799499;29;20483;-82
2022/08/04 00:46:20;;;;;;;33.85;15.60;;;;;;;;;;4801085;29;20076;-81
2022/08/04 00:48:49;;;;;;;25.55;14.32;;;;;;;;;;4799120;29;20525;-83
2022/08/04 00:51:28;;;;;;;28.33;14.40;;;;;;;;;;4791491;29;20487;-84
2022/08/04 00:54:18;;;;;;;22.88;13.77;;;;;;;;;;4793416;29;20137;-81
2022/08/04 00:56:57;;;;;;;34.17;14.73;;;;;;;;;;4791869;29;20054;-84
2022/08/04 00:59:42;;;;;;;38.30;14.82;;;;;;;;;;4793118;29;20051;-81
2022/08/04 01:02:21;;;;;;;34.78;15.60;;;;;;;;;;4791729;29;20191;-83
2022/08/04 01:05:15;;;;;;;35.30;15.35;;;;;;;;;;4787391;29;20082;-83
2022/08/04 01:07:48;;;;;;;34.50;16.13;;;;;;;;;;4792829;29;20047;-84
2022/08/04 01:10:29;;;;;;;40.95;15.75;;;;;;;;;;4793356;29;20147;-83
2022/08/04 01:13:04;;;;;;;36.78;16.65;;;;;;;;;;4790310;29;20054;-82
2022/08/04 01:15:36;;;;;;;31.33;16.75;;;;;;;;;;4790746;29;20465;-82
2022/08/04 01:18:06;;;;;;;30.60;14.80;;;;;;;;;;4776105;29;20138;-83
2022/08/04 01:20:34;;;;;;;35.90;14.93;;;;;;;;;;4790513;29;20104;-82
2022/08/04 01:23:21;;;;;;;26.98;14.85;;;;;;;;;;4793278;29;20489;-81
2022/08/04 01:26:01;;;;;;;32.08;14.90;;;;;;;;;;4808155;29;20057;-80
2022/08/04 01:28:29;;;;;;;32.42;14.88;;;;;;;;;;4807871;29;20145;-81
2022/08/04 01:31:02;;;;;;;35.83;15.38;;;;;;;;;;4809063;29;20142;-80
2022/08/04 01:33:29;;;;;;;34.60;15.73;;;;;;;;;;4807579;29;20066;-83
2022/08/04 01:35:58;;;;;;;40.85;15.40;;;;;;;;;;4792157;29;20055;-81
2022/08/04 01:38:25;;;;;;;31.45;16.30;;;;;;;;;;4796273;29;20096;-83
2022/08/04 01:40:52;;;;;;;32.22;15.55;;;;;;;;;;4796150;29;20095;-83
2022/08/04 01:43:19;;;;;;;44.58;15.40;;;;;;;;;;4793074;29;20090;-84
2022/08/04 01:45:49;;;;;;;33.28;14.43;;;;;;;;;;4793082;29;20174;-84
2022/08/04 01:48:16;;;;;;;36.35;16.00;;;;;;;;;;4793130;29;20079;-83
2022/08/04 01:50:42;;;;;;;33.78;14.75;;;;;;;;;;4793812;29;20049;-83
2022/08/04 01:53:09;;;;;;;30.60;15.50;;;;;;;;;;4784762;29;20039;-82
2022/08/04 01:55:36;;;;;;;41.63;15.65;;;;;;;;;;4794243;29;20043;-83
2022/08/04 01:58:05;;;;;;;36.92;14.82;;;;;;;;;;4792508;29;20050;-83
2022/08/04 02:00:31;;;;;;;38.58;15.93;;;;;;;;;;4776833;29;20057;-83
2022/08/04 02:02:57;;;;;;;30.27;15.57;;;;;;;;;;4792949;29;20437;-83
2022/08/04 02:05:25;;;;;;;32.75;15.23;;;;;;;;;;4791797;29;20043;-84
2022/08/04 02:08:10;;;;;;;32.33;15.95;;;;;;;;;;4778069;29;20079;-82
2022/08/04 02:10:42;;;;;;;36.17;16.15;;;;;;;;;;4790737;29;20039;-82
2022/08/04 02:13:08;;;;;;;33.38;16.45;;;;;;;;;;4788973;29;20398;-83
2022/08/04 02:15:54;;;;;;;36.35;16.88;;;;;;;;;;4791348;29;20509;-83
2022/08/04 02:18:23;;;;;;;36.95;16.38;;;;;;;;;;4754404;29;20062;-82
2022/08/04 02:20:53;;;;;;;38.45;16.52;;;;;;;;;;4793212;29;20133;-84
2022/08/04 02:23:25;;;;;;;39.20;17.13;;;;;;;;;;4796660;29;20054;-83
2022/08/04 02:25:58;;;;;;;37.60;17.02;;;;;;;;;;4793758;29;20030;-83
2022/08/04 02:28:24;;;;;;;32.33;16.23;;;;;;;;;;4798851;29;20050;-82
2022/08/04 02:30:57;;;;;;;37.58;16.17;;;;;;;;;;4773337;29;20480;-82
2022/08/04 02:33:26;;;;;;;42.58;17.00;;;;;;;;;;4773710;29;20914;-81
2022/08/04 02:35:56;;;;;;;38.25;16.85;;;;;;;;;;4791941;29;20055;-82
2022/08/04 02:38:22;;;;;;;36.20;16.80;;;;;;;;;;4791835;29;20047;-83
2022/08/04 02:40:49;;;;;;;33.20;15.93;;;;;;;;;;4788656;29;20110;-84
2022/08/04 02:43:19;;;;;;;40.20;16.90;;;;;;;;;;4792112;29;21495;-83
2022/08/04 02:45:46;;;;;;;37.15;17.38;;;;;;;;;;4791489;29;20163;-82
2022/08/04 02:48:14;;;;;;;39.33;16.48;;;;;;;;;;4794851;29;20408;-81
2022/08/04 02:50:40;;;;;;;34.17;16.08;;;;;;;;;;4791529;29;20509;-83
2022/08/04 02:53:09;;;;;;;29.27;15.80;;;;;;;;;;4795950;29;20047;-84
2022/08/04 02:55:35;;;;;;;29.88;15.25;;;;;;;;;;4793045;29;20345;-83
2022/08/04 02:58:03;;;;;;;27.23;15.95;;;;;;;;;;4793039;29;20100;-82
2022/08/04 03:00:29;;;;;;;27.02;16.52;;;;;;;;;;4794568;29;20046;-82
2022/08/04 03:02:58;;;;;;;36.65;16.65;;;;;;;;;;4777706;29;20085;-84
2022/08/04 03:05:33;;;;;;;31.90;16.25;;;;;;;;;;4795627;29;20077;-83
2022/08/04 03:08:18;;;;;;;30.75;15.80;;;;;;;;;;4795130;29;20070;-83
2022/08/04 03:11:08;;;;;;;31.90;17.10;;;;;;;;;;4797746;29;20080;-82
2022/08/04 03:13:49;;;;;;;31.80;16.20;;;;;;;;;;4794294;29;20053;-84
2022/08/04 03:16:18;;;;;;;33.83;16.17;;;;;;;;;;4793745;29;20058;-83
2022/08/04 03:19:17;;;;;;;31.05;16.40;;;;;;;;;;4793956;29;20051;-83
2022/08/04 03:21:46;;;;;;;33.38;16.70;;;;;;;;;;4792391;29;20131;-83
2022/08/04 03:24:15;;;;;;;32.30;16.38;;;;;;;;;;4793672;29;20047;-82
2022/08/04 03:26:41;;;;;;;37.45;18.02;;;;;;;;;;4791204;29;20043;-81
2022/08/04 03:29:26;;;;;;;32.70;15.98;;;;;;;;;;4792963;29;20054;-83
2022/08/04 03:31:55;;;;;;;29.05;16.20;;;;;;;;;;4790999;29;20106;-80
2022/08/04 03:34:21;;;;;;;43.00;17.00;;;;;;;;;;4774807;29;20534;-80
2022/08/04 03:37:08;;;;;;;29.88;15.02;;;;;;;;;;4789601;29;20126;-81
2022/08/04 03:39:34;;;;;;;33.85;15.88;;;;;;;;;;4791141;29;20516;-83
2022/08/04 03:42:31;;;;;;;34.25;15.57;;;;;;;;;;4791664;29;20045;-84
2022/08/04 03:45:15;;;;;;;27.30;15.35;;;;;;;;;;4794710;29;20038;-80
2022/08/04 03:47:51;;;;;;;33.78;15.68;;;;;;;;;;4778628;29;20454;-82
2022/08/04 03:50:17;;;;;;;26.20;15.50;;;;;;;;;;4797426;29;20846;-82
2022/08/04 03:55:46;;;;;;;37.50;16.20;;;;;;;;;;4792403;29;20315;-84
2022/08/04 03:58:36;;;;;;;32.22;15.30;;;;;;;;;;4792767;29;20449;-84
2022/08/04 04:01:02;;;;;;;30.42;16.55;;;;;;;;;;4793584;29;20091;-83
2022/08/04 04:03:51;;;;;;;33.80;16.17;;;;;;;;;;4793394;29;20050;-84
2022/08/04 04:06:36;;;;;;;29.48;15.75;;;;;;;;;;4747742;29;20058;-85
2022/08/04 04:09:08;;;;;;;29.02;15.27;;;;;;;;;;4791448;29;20082;-84
2022/08/04 04:11:44;;;;;;;32.95;15.73;;;;;;;;;;4787810;29;20154;-82
2022/08/04 04:14:33;;;;;;;31.40;15.35;;;;;;;;;;4794921;29;20063;-82
2022/08/04 04:17:18;;;;;;;35.42;16.65;;;;;;;;;;4780035;29;20051;-83
2022/08/04 04:19:53;;;;;;;36.65;16.48;;;;;;;;;;4793517;29;20203;-79
2022/08/04 04:22:37;;;;;;;30.77;16.48;;;;;;;;;;4793901;29;20039;-82
2022/08/04 04:25:03;;;;;;;30.83;15.23;;;;;;;;;;4790949;29;20053;-83
2022/08/04 04:27:48;;;;;;;25.77;14.05;;;;;;;;;;4794438;29;20042;-82
2022/08/04 04:30:17;;;;;;;30.08;15.75;;;;;;;;;;4782749;29;20059;-82
2022/08/04 04:32:56;;;;;;;28.33;13.57;;;;;;;;;;4791525;29;20065;-83
2022/08/04 04:35:29;;;;;;;27.67;15.45;;;;;;;;;;4792904;29;20121;-83
2022/08/04 04:37:55;;;;;;;26.67;13.63;;;;;;;;;;4790903;29;20169;-82
2022/08/04 04:40:24;;;;;;;26.00;15.40;;;;;;;;;;4775718;29;20473;-82
2022/08/04 04:43:09;;;;;;;30.17;14.98;;;;;;;;;;4775767;29;20116;-82
2022/08/04 04:45:42;;;;;;;26.95;14.70;;;;;;;;;;4790507;29;20100;-83
2022/08/04 04:48:12;;;;;;;25.98;14.10;;;;;;;;;;4791605;29;20203;-82
2022/08/04 04:50:47;;;;;;;27.88;14.90;;;;;;;;;;4777851;29;20138;-84
2022/08/04 04:53:19;;;;;;;27.30;14.00;;;;;;;;;;4795377;29;20050;-83
2022/08/04 04:55:50;;;;;;;30.92;14.77;;;;;;;;;;4790385;29;20138;-84
2022/08/04 04:58:17;;;;;;;25.35;14.23;;;;;;;;;;4794765;29;20047;-84
2022/08/04 05:00:46;;;;;;;28.95;15.25;;;;;;;;;;4799513;29;20035;-82
2022/08/04 05:03:25;;;;;;;24.90;15.68;;;;;;;;;;4788827;29;20139;-81
2022/08/04 05:05:57;;;;;;;28.15;15.82;;;;;;;;;;4805589;29;20168;-81
2022/08/04 05:08:49;;;;;;;23.98;14.98;;;;;;;;;;4810376;29;20050;-82
2022/08/04 05:11:34;;;;;;;23.67;14.82;;;;;;;;;;4783001;29;20477;-82
2022/08/04 05:14:14;;;;;;;25.75;14.25;;;;;;;;;;4800887;29;20065;-83
2022/08/04 05:16:50;;;;;;;25.73;14.02;;;;;;;;;;4793584;29;20905;-83
2022/08/04 05:19:16;;;;;;;30.13;14.55;;;;;;;;;;4795142;29;20058;-82
2022/08/04 05:22:01;;;;;;;29.52;14.95;;;;;;;;;;4780048;29;20043;-82
2022/08/04 05:24:28;;;;;;;27.90;14.40;;;;;;;;;;4796259;29;20070;-83
2022/08/04 05:27:01;;;;;;;31.27;14.57;;;;;;;;;;4787467;29;20396;-83
2022/08/04 05:29:37;;;;;;;27.48;14.95;;;;;;;;;;4791470;29;20054;-83
2022/08/04 05:32:05;;;;;;;28.08;15.15;;;;;;;;;;4789289;29;20047;-84
2022/08/04 05:34:35;;;;;;;27.95;15.30;;;;;;;;;;4777561;29;20083;-83
2022/08/04 05:37:02;;;;;;;30.10;15.18;;;;;;;;;;4795219;29;20047;-84
2022/08/04 05:39:30;;;;;;;22.27;14.50;;;;;;;;;;4800595;29;20126;-83
2022/08/04 05:41:58;;;;;;;26.42;14.50;;;;;;;;;;4798244;29;20508;-83
2022/08/04 05:44:25;;;;;;;22.10;13.27;;;;;;;;;;4797695;29;20046;-84
2022/08/04 05:46:54;;;;;;;25.70;14.23;;;;;;;;;;4794463;29;20035;-83
2022/08/04 05:49:21;;;;;;;29.42;13.88;;;;;;;;;;4785092;29;20082;-84
2022/08/04 05:51:48;;;;;;;36.13;14.13;;;;;;;;;;4798858;29;20043;-83
2022/08/04 05:54:15;;;;;;;31.90;14.18;;;;;;;;;;4796778;29;20119;-84
2022/08/04 05:56:41;;;;;;;26.15;14.13;;;;;;;;;;4795493;29;20053;-83
2022/08/04 05:59:10;;;;;;;28.15;14.57;;;;;;;;;;4797614;29;20049;-84
2022/08/04 06:01:38;;;;;;;32.85;15.25;;;;;;;;;;4798271;29;20148;-83
2022/08/04 06:04:04;;;;;;;26.23;14.25;;;;;;;;;;4800225;29;20573;-81
2022/08/04 06:06:31;;;;;;;28.55;13.77;;;;;;;;;;4796494;29;20131;-83
2022/08/04 06:08:57;;;;;;;31.30;14.50;;;;;;;;;;4798419;29;20043;-83
2022/08/04 06:11:27;;;;;;;29.83;14.60;;;;;;;;;;4796134;29;20051;-83
2022/08/04 06:13:58;;;;;;;25.58;14.07;;;;;;;;;;4784313;29;20416;-82
2022/08/04 06:16:24;;;;;;;24.83;14.40;;;;;;;;;;4793062;29;20047;-84
2022/08/04 06:18:52;;;;;;;34.92;14.88;;;;;;;;;;4798101;29;20062;-83
2022/08/04 06:21:20;;;;;;;26.85;14.23;;;;;;;;;;4780640;29;20091;-81
2022/08/04 06:23:46;;;;;;;24.20;13.18;;;;;;;;;;4797876;29;20043;-83
2022/08/04 06:26:18;;;;;;;28.70;13.70;;;;;;;;;;4796270;29;21115;-83
2022/08/04 06:28:46;;;;;;;23.13;13.38;;;;;;;;;;4780370;29;20591;-82
2022/08/04 06:31:12;;;;;;;29.10;13.77;;;;;;;;;;4799586;29;20046;-82
2022/08/04 06:33:39;;;;;;;26.92;13.05;;;;;;;;;;4796027;29;20066;-83
2022/08/04 06:36:05;;;;;;;26.05;13.35;;;;;;;;;;4809920;29;20047;-80
2022/08/04 06:38:34;;;;;;;26.75;12.90;;;;;;;;;;4783414;29;20043;-82
2022/08/04 06:41:08;;;;;;;32.20;12.93;;;;;;;;;;4798814;29;20059;-84
2022/08/04 06:43:36;;;;;;;33.20;13.13;;;;;;;;;;4798181;29;20046;-84
2022/08/04 06:46:07;;;;;;;24.88;12.20;;;;;;;;;;4797763;29;20386;-83
2022/08/04 06:48:33;;;;;;;22.15;10.80;;;;;;;;;;4799331;29;20047;-84
2022/08/04 06:51:01;;;;;;;24.52;11.45;;;;;;;;;;4796271;29;20578;-83
2022/08/04 06:53:27;;;;;;;31.08;10.73;;;;;;;;;;4798143;29;20042;-84
2022/08/04 06:55:53;;;;;;;18.58;10.20;;;;;;;;;;4800600;29;20051;-82
2022/08/04 06:58:20;;;;;;;22.13;10.68;;;;;;;;;;4799460;29;20051;-84
2022/08/04 07:00:47;;;;;;;23.30;9.27;;;;;;;;;;4796623;29;20126;-85
2022/08/04 07:03:14;;;;;;;19.45;9.48;;;;;;;;;;4800287;29;20047;-83
2022/08/04 07:05:40;;;;;;;27.92;9.68;;;;;;;;;;4800759;29;20121;-84
2022/08/04 07:08:07;;;;;;;16.48;8.70;;;;;;;;;;4803103;29;20039;-82
2022/08/04 07:10:33;;;;;;;19.85;9.85;;;;;;;;;;4798351;29;20068;-84
2022/08/04 07:13:00;;;;;;;20.42;9.70;;;;;;;;;;4799843;29;20075;-84
2022/08/04 07:15:27;;;;;;;20.00;8.52;;;;;;;;;;4780133;29;20050;-83
2022/08/04 07:17:55;;;;;;;18.30;8.02;;;;;;;;;;4786024;29;20050;-84
2022/08/04 07:20:21;;;;;;;20.90;7.78;;;;;;;;;;4818946;29;20042;-83
2022/08/04 07:22:48;;;;;;;14.93;7.55;;;;;;;;;;4776690;29;20452;-84
2022/08/04 07:25:30;;;;;;;17.15;7.70;;;;;;;;;;4794587;29;20051;-85
2022/08/04 07:27:56;;;;;;;16.23;7.22;;;;;;;;;;4800879;29;20461;-84
2022/08/04 07:30:24;;;;;;;23.33;8.85;;;;;;;;;;4812147;29;20039;-85
2022/08/04 07:33:05;;;;;;;14.88;6.97;;;;;;;;;;4810851;29;20035;-84
2022/08/04 07:35:32;;;;;;;18.27;8.07;;;;;;;;;;4795535;29;20054;-82
2022/08/04 07:37:58;;;;;;;20.17;7.45;;;;;;;;;;4801668;29;20097;-81
2022/08/04 07:40:25;;;;;;;17.27;7.97;;;;;;;;;;4787235;29;20073;-82
2022/08/04 07:42:51;;;;;;;14.20;7.47;;;;;;;;;;4787721;29;20066;-83
2022/08/04 07:45:18;;;;;;;17.88;7.10;;;;;;;;;;4785190;29;20374;-81
2022/08/04 07:47:45;;;;;;;17.20;6.93;;;;;;;;;;4800571;29;20089;-82
2022/08/04 07:50:15;;;;;;;13.15;6.35;;;;;;;;;;4786469;29;20043;-85
2022/08/04 07:52:45;;;;;;;13.60;5.78;;;;;;;;;;4798916;29;20061;-83
2022/08/04 07:55:27;;;;;;;18.90;6.80;;;;;;;;;;4798729;29;20054;-85
2022/08/04 07:57:53;;;;;;;19.10;5.03;;;;;;;;;;4784512;29;20051;-82
2022/08/04 08:00:19;;;;;;;14.25;5.50;;;;;;;;;;4802504;29;20078;-82
2022/08/04 08:02:47;;;;;;;11.00;4.88;;;;;;;;;;4802612;29;20051;-84
2022/08/04 08:05:15;;;;;;;11.70;5.03;;;;;;;;;;4801875;29;20568;-82
2022/08/04 08:07:44;;;;;;;12.52;4.90;;;;;;;;;;4803211;29;20127;-82
2022/08/04 08:10:14;;;;;;;14.98;4.30;;;;;;;;;;4801313;29;20051;-84
2022/08/04 08:12:41;;;;;;;18.55;4.60;;;;;;;;;;4803946;29;20077;-85
2022/08/04 08:15:07;;;;;;;13.77;4.68;;;;;;;;;;4804703;29;20087;-85
2022/08/04 08:17:34;;;;;;;12.93;4.05;;;;;;;;;;4808585;29;20042;-85
2022/08/04 08:20:00;;;;;;;12.90;4.32;;;;;;;;;;4804716;29;20143;-83
2022/08/04 08:22:27;;;;;;;9.63;4.03;;;;;;;;;;4781477;29;20063;-84
2022/08/04 08:24:53;;;;;;;10.32;3.85;;;;;;;;;;4807266;29;20042;-82
2022/08/04 08:27:22;;;;;;;8.80;3.38;;;;;;;;;;4808106;29;20569;-83
2022/08/04 08:29:48;;;;;;;19.17;4.38;;;;;;;;;;4792838;29;20043;-82
2022/08/04 08:32:15;;;;;;;10.68;4.03;;;;;;;;;;4801525;29;20042;-82
2022/08/04 08:40:42;;;;;;;9.73;3.63;;;;;;;;;;4789918;29;20100;-87
2022/08/04 08:43:27;;;;;;;11.50;3.67;;;;;;;;;;4790459;29;20117;-86
2022/08/04 08:49:01;;;;;;;12.48;4.38;;;;;;;;;;4804055;29;20053;-85
2022/08/04 08:51:42;;;;;;;10.10;4.10;;;;;;;;;;4806394;29;20051;-85
2022/08/04 08:54:17;;;;;;;13.43;3.92;;;;;;;;;;4803614;29;20077;-87
2022/08/04 08:56:49;;;;;;;15.15;4.20;;;;;;;;;;4790640;29;20058;-86
2022/08/04 08:59:34;;;;;;;11.45;3.67;;;;;;;;;;4800988;29;20058;-87
2022/08/04 09:08:53;;;;;;;12.10;4.97;;;;;;;;;;4776232;29;20101;-85
2022/08/04 09:11:20;;;;;;;10.18;3.17;;;;;;;;;;4799788;24;20047;-85
2022/08/04 09:13:50;;;;;;;14.52;3.78;;;;;;;;;;4828388;24;20158;31
2022/08/04 09:16:28;;;;;;;13.82;3.88;;;;;;;;;;4799946;29;20421;-87
2022/08/04 09:19:08;;;;;;;14.02;4.30;;;;;;;;;;4796971;29;20062;-86
2022/08/04 09:21:37;;;;;;;10.48;4.10;;;;;;;;;;4808540;29;20057;-86
2022/08/04 09:26:44;;;;;;;19.38;5.80;;;;;;;;;;4855100;23;20050;-84
2022/08/04 09:34:48;;;;;;;14.25;6.43;;;;;;;;;;4971743;23;20732;-82
2022/08/04 09:37:20;;;;;;;12.40;5.63;;;;;;;;;;4858914;29;20081;-81
2022/08/04 09:43:31;;;;;;;14.15;6.22;;;;;;;;;;4858505;23;20086;-80
2022/08/04 09:49:05;;;;;;;17.27;7.28;;;;;;;;;;4910035;23;20093;-84
2022/08/04 09:55:35;;;;;;;19.85;6.50;;;;;;;;;;4829273;24;20069;-79
2022/08/04 10:01:31;;;;;;;11.95;7.13;;;;;;;;;;4820971;24;20061;-82
2022/08/04 10:10:56;;;;;;;12.38;5.78;;;;;;;;;;4837031;24;20410;-82
2022/08/04 10:23:11;;;;;;;11.57;4.00;;;;;;;;;;4828224;23;20137;-85
2022/08/04 10:25:40;;;;;;;11.75;3.90;;;;;;;;;;4850637;23;20058;-81
2022/08/04 10:32:40;;;;;;;10.57;3.70;;;;;;;;;;4821896;29;20054;-83
2022/08/04 10:35:37;;;;;;;5.13;3.05;;;;;;;;;;4789411;29;20059;-83
2022/08/04 10:38:18;;;;;;;11.50;3.75;;;;;;;;;;4791925;29;20138;-82
2022/08/04 10:41:18;;;;;;;8.70;3.45;;;;;;;;;;4790858;29;20063;-81
2022/08/04 10:47:31;;;;;;;12.48;3.13;;;;;;;;;;4779133;30;20059;-82
2022/08/04 10:53:17;;;;;;;10.07;3.22;;;;;;;;;;4836753;23;20081;-82
2022/08/04 10:59:29;;;;;;;7.00;2.50;;;;;;;;;;4834618;29;20060;-82
2022/08/04 11:09:18;;;;;;;12.93;2.55;;;;;;;;;;4824307;24;20093;-83
2022/08/04 11:15:46;;;;;;;13.15;3.55;;;;;;;;;;4833665;24;20046;-84
2022/08/04 11:32:07;;;;;;;6.35;1.65;;;;;;;;;;4820140;24;20558;-83
2022/08/04 11:34:34;;;;;;;3.60;1.63;;;;;;;;;;4823756;29;20051;-82
2022/08/04 11:43:01;;;;;;;9.05;2.05;;;;;;;;;;4818301;29;20077;-84
2022/08/04 11:45:33;;;;;;;4.15;1.40;;;;;;;;;;4808047;29;20048;-84
2022/08/04 11:48:11;;;;;;;2.67;1.40;;;;;;;;;;4824839;29;20071;-84
2022/08/04 11:50:50;;;;;;;3.50;1.20;;;;;;;;;;4826271;29;20054;-82
2022/08/04 11:53:18;;;;;;;2.70;1.40;;;;;;;;;;4825589;29;20148;-84
2022/08/04 11:55:51;;;;;;;2.47;1.25;;;;;;;;;;4815627;29;20106;-83
2022/08/04 11:58:17;;;;;;;3.47;1.23;;;;;;;;;;4822187;29;20196;-81
2022/08/04 12:01:14;;;;;;;8.98;2.08;;;;;;;;;;4809236;29;20523;-84
2022/08/04 12:03:43;;;;;;;5.72;2.13;;;;;;;;;;4832398;29;20065;-84
2022/08/04 12:06:09;;;;;;;5.53;2.17;;;;;;;;;;4829568;29;20062;-84
2022/08/04 12:08:44;;;;;;;7.20;1.52;;;;;;;;;;4814679;29;20046;-83
2022/08/04 12:11:27;;;;;;;7.45;1.95;;;;;;;;;;4824901;29;20051;-81
2022/08/04 12:13:53;;;;;;;;;;;;;;;;;;4824502;29;20526;-83
2022/08/04 12:16:38;;;;;;;5.97;1.67;;;;;;;;;;4814652;29;19932;-82
2022/08/04 12:19:37;;;;;;;3.30;1.38;;;;;;;;;;4809307;29;20054;-83
2022/08/04 12:59:40;;;;;;;5.72;1.58;;;;;;;;;;4915237;23;20106;-86
2022/08/04 13:05:30;;;;;;;2.65;1.10;;;;;;;;;;4828064;29;20044;-85
2022/08/04 13:07:56;;;;;;;33.45;2.53;;;;;;;;;;4813772;29;20050;-87
2022/08/04 13:10:38;;;;;;;6.80;1.48;;;;;;;;;;4860646;23;20068;-81
2022/08/04 13:16:42;;;;;;;3.05;1.50;;;;;;;;;;4846565;23;20069;-81
2022/08/04 13:22:39;;;;;;;5.03;1.50;;;;;;;;;;4857772;23;20090;-86
2022/08/04 13:25:05;;;;;;;4.40;0.90;;;;;;;;;;4847546;29;20065;-85
2022/08/04 13:42:57;;;;;;;5.07;1.52;;;;;;;;;;4823959;29;20065;-84
2022/08/04 13:45:25;;;;;;;4.93;1.20;;;;;;;;;;4792185;29;20428;-82
2022/08/04 13:47:57;;;;;;;4.50;1.40;;;;;;;;;;4820418;29;20042;-83
2022/08/04 13:50:29;;;;;;;7.97;1.63;;;;;;;;;;4822170;29;20058;-83
2022/08/04 13:52:56;;;;;;;4.50;1.90;;;;;;;;;;4821965;29;20124;-83
2022/08/04 13:56:00;;;;;;;5.68;1.50;;;;;;;;;;4818925;29;20050;-82
2022/08/04 13:58:28;;;;;;;8.95;1.60;;;;;;;;;;4804205;29;20060;-82
2022/08/04 14:01:03;;;;;;;9.43;1.75;;;;;;;;;;4818581;29;20050;-86
2022/08/04 14:03:51;;;;;;;5.00;1.13;;;;;;;;;;4814301;29;20046;-83
2022/08/04 14:09:37;;;;;;;8.10;2.10;;;;;;;;;;4848135;24;20086;-86
2022/08/04 14:12:11;;;;;;;8.48;2.40;;;;;;;;;;4822706;29;20550;-85
2022/08/04 14:14:51;;;;;;;10.52;2.90;;;;;;;;;;4839602;29;20050;-86
2022/08/04 14:17:18;;;;;;;14.75;3.70;;;;;;;;;;4820716;29;20074;-83
2022/08/04 14:19:47;;;;;;;21.77;6.50;;;;;;;;;;4820258;29;20081;-85
2022/08/04 14:22:28;;;;;;;19.02;6.55;;;;;;;;;;4838879;29;20082;-82
2022/08/04 14:25:02;;;;;;;13.43;4.95;;;;;;;;;;4836058;29;20050;-83
2022/08/04 14:27:29;;;;;;;13.20;4.05;;;;;;;;;;4838042;29;20054;-79
2022/08/04 14:29:55;;;;;;;14.43;3.60;;;;;;;;;;4835324;29;20078;-85
2022/08/04 14:32:21;;;;;;;15.15;4.40;;;;;;;;;;4835622;29;20053;-82
2022/08/04 14:34:47;;;;;;;17.70;6.63;;;;;;;;;;4820211;29;20135;-83
2022/08/04 14:37:15;;;;;;;14.25;6.43;;;;;;;;;;4839504;29;20520;-82
2022/08/04 14:39:46;;;;;;;20.73;7.45;;;;;;;;;;4823944;29;20073;-80
2022/08/04 14:42:45;;;;;;;20.08;7.55;;;;;;;;;;4837211;29;20042;-81
2022/08/04 14:45:12;;;;;;;20.27;7.63;;;;;;;;;;4842463;29;20517;-82
2022/08/04 14:47:43;;;;;;;15.00;7.50;;;;;;;;;;4816067;29;20105;-81
2022/08/04 14:50:10;;;;;;;12.43;6.82;;;;;;;;;;4844464;29;20113;-82
2022/08/04 14:52:36;;;;;;;14.07;8.00;;;;;;;;;;4832618;29;20052;-84
2022/08/04 14:55:14;;;;;;;12.05;8.10;;;;;;;;;;4843277;29;20579;-82
2022/08/04 14:57:41;;;;;;;19.30;7.68;;;;;;;;;;4824967;29;20034;-81
2022/08/04 15:00:11;;;;;;;11.25;7.53;;;;;;;;;;4807311;29;20046;-84
2022/08/04 15:02:38;;;;;;;13.63;6.70;;;;;;;;;;4827066;29;20081;-82
2022/08/04 15:05:07;;;;;;;9.77;6.18;;;;;;;;;;4841613;29;20045;-80
2022/08/04 15:07:34;;;;;;;7.30;5.57;;;;;;;;;;4841554;29;20141;-83
2022/08/04 15:10:02;;;;;;;7.15;6.32;;;;;;;;;;4840209;29;20105;-81
2022/08/04 15:12:28;;;;;;;8.63;5.97;;;;;;;;;;4843903;29;20050;-83
2022/08/04 15:14:55;;;;;;;8.07;5.40;;;;;;;;;;4823844;29;20057;-83
2022/08/04 15:17:46;;;;;;;10.18;5.00;;;;;;;;;;4845417;23;20515;-85
2022/08/04 15:20:22;;;;;;;13.32;5.13;;;;;;;;;;4828129;29;20070;-82
2022/08/04 15:22:49;;;;;;;7.45;4.35;;;;;;;;;;4834231;23;20118;-85
2022/08/04 15:25:19;;;;;;;6.50;3.97;;;;;;;;;;4902782;24;20058;-83
2022/08/04 15:28:04;;;;;;;6.07;4.13;;;;;;;;;;4833844;29;20062;-82
2022/08/04 15:30:49;;;;;;;8.63;3.90;;;;;;;;;;4829139;29;20080;-84
2022/08/04 15:35:54;;;;;;;14.27;4.55;;;;;;;;;;4834814;23;20123;-84
2022/08/04 15:38:36;;;;;;;11.05;4.10;;;;;;;;;;4809102;29;20098;-85
2022/08/04 15:41:09;;;;;;;10.77;4.20;;;;;;;;;;4824241;29;20046;-82
2022/08/04 15:47:18;;;;;;;6.47;3.50;;;;;;;;;;5212186;23;21666;-83
2022/08/04 15:49:44;;;;;;;5.57;3.00;;;;;;;;;;4826831;29;20050;-83
2022/08/04 15:52:15;;;;;;;6.00;3.50;;;;;;;;;;4827943;29;20046;-84
2022/08/04 15:54:41;;;;;;;6.50;2.83;;;;;;;;;;5011761;23;20072;-84
2022/08/04 15:57:44;;;;;;;6.57;2.88;;;25.80;99.90;;;;;;4821961;24;20057;-82
2022/08/04 16:03:50;;;;;;;8.00;2.60;;;;;;;;;;5172240;23;20069;-83
2022/08/04 16:12:59;;;;;;;7.45;2.50;;;;;;;;;;4853363;23;20510;-84
2022/08/04 16:40:12;;;;;;;6.85;2.22;;;;;;;;;;4873181;23;20045;-85
2022/08/04 16:59:08;;;;;;;6.85;1.73;;;;;;;;;;4904679;23;20052;-84
2022/08/04 17:01:34;;;;;;;6.05;1.88;;;;;;;;;;4832762;29;20106;-87
2022/08/04 17:15:00;;;;;;;;;;;;;;;;;;;;;
2022/08/04 17:29:04;;;;;;;8.73;2.10;;;;;;;;;;4824462;29;20087;-85
2022/08/04 17:35:03;;;;;;;5.20;1.83;;;;;;;;;;4835285;23;20089;-81
2022/08/04 17:48:08;;;;;;;8.48;1.67;;;;;;;;;;4805326;29;20062;-81
2022/08/04 17:54:07;;;;;;;9.20;2.03;;;25.00;99.90;;;;;;4809532;29;20443;-79
2022/08/04 18:00:09;;;;;;;4.22;1.58;;;;;;;;;;4789871;29;20391;-85
2022/08/04 18:02:35;;;;;;;5.80;1.70;;;;;;;;;;4799132;29;20047;-83
2022/08/04 18:05:07;;;;;;;8.13;2.03;;;;;;;;;;4809303;29;20046;-83
2022/08/04 18:07:38;;;;;;;9.13;1.92;;;;;;;;;;4802723;29;20065;-82
2022/08/04 18:13:12;;;;;;;6.68;1.80;;;;;;;;;;4803994;29;20098;-82
2022/08/04 18:15:44;;;;;;;8.85;2.00;;;;;;;;;;4808524;29;20061;-83
2022/08/04 18:18:21;;;;;;;5.47;1.60;;;;;;;;;;4806692;29;20055;-84
2022/08/04 18:21:08;;;;;;;4.35;1.70;;;;;;;;;;4768129;29;20047;-83
2022/08/04 18:23:53;;;;;;;6.00;2.35;;;;;;;;;;4812549;29;20195;-81
2022/08/04 18:26:37;;;;;;;11.43;2.15;;;;;;;;;;4802768;29;20046;-83
2022/08/04 18:29:09;;;;;;;;;;;;;;;;;;4805532;29;20054;-82
2022/08/04 18:31:41;;;;;;;5.65;2.17;;;;;;;;;;4792623;29;19948;-85
2022/08/04 18:34:07;;;;;;;8.75;2.55;;;;;;;;;;4790349;29;20054;-84
2022/08/04 18:36:53;;;;;;;7.85;2.33;;;;;;;;;;4807403;29;21022;-83
2022/08/04 18:42:26;;;;;;;6.30;2.60;;;22.10;99.90;;;;;;4863669;24;20073;-86
2022/08/04 18:45:11;;;;;;;7.82;2.33;;;;;;;;;;4809195;29;20061;-82
2022/08/04 18:47:41;;;;;;;8.63;2.10;;;;;;;;;;4827194;29;20866;-85
2022/08/04 18:50:11;;;;;;;8.43;2.60;;;;;;;;;;4841197;29;20085;-84
2022/08/04 18:52:42;;;;;;;11.38;3.60;;;;;;;;;;4810850;29;20141;-81
2022/08/04 18:55:17;;;;;;;8.60;2.80;;;;;;;;;;4821974;29;20058;-82
2022/08/04 18:57:43;;;;;;;5.57;2.10;;;;;;;;;;4827515;29;20079;-83
2022/08/04 19:00:10;;;;;;;6.72;2.50;;;;;;;;;;4807190;29;20042;-84
2022/08/04 19:02:45;;;;;;;11.27;2.10;;;;;;;;;;4805882;29;20046;-85
2022/08/04 19:05:20;;;;;;;17.65;2.95;;;;;;;;;;4806659;29;20065;-83
2022/08/04 19:08:02;;;;;;;9.77;2.83;;;;;;;;;;4832732;29;20046;-84
2022/08/04 19:10:28;;;;;;;23.73;4.10;;;;;;;;;;4819706;29;20509;-81
2022/08/04 19:18:31;;;;;;;14.05;3.80;;;;;;;;;;4788082;29;20439;-86
2022/08/04 19:21:24;;;;;;;26.23;3.90;;;;;;;;;;4782079;30;20043;-85
2022/08/04 19:23:58;;;;;;;10.40;2.42;;;;;;;;;;4782249;30;20054;-85
2022/08/04 19:26:28;;;;;;;8.23;2.40;;;;;;;;;;4801262;29;20047;-83
2022/08/04 19:29:00;;;;;;;7.45;2.50;;;;;;;;;;4805195;29;20066;-83
2022/08/04 19:31:26;;;;;;;8.88;2.72;;;;;;;;;;4808229;29;20046;-84
2022/08/04 19:34:05;;;;;;;5.28;2.38;;;;;;;;;;4810359;29;20034;-83
2022/08/04 19:36:49;;;;;;;7.25;2.05;;;;;;;;;;4806643;29;20039;-83
2022/08/04 19:39:24;;;;;;;5.05;2.10;;;;;;;;;;4804592;29;20051;-85
2022/08/04 19:42:09;;;;;;;10.90;2.72;;;;;;;;;;4794729;29;20051;-83